sensor_id;sensor_type;location;lat;lon;timestamp;pressure;altitude;pressure_sealevel;temperature;humidity
49315;BME280;36672;50.710;12.498;2023-04-04T00:01:23;99661.28;;;0.78;57.43
49315;BME280;36672;50.710;12.498;2023-04-04T00:03:49;99655.13;;;0.77;57.88
49315;BME280;36672;50.710;12.498;2023-04-04T00:06:15;99648.09;;;0.76;58.68
49315;BME280;36672;50.710;12.498;2023-04-04T00:08:41;99655.31;;;0.74;59.05
49315;BME280;36672;50.710;12.498;2023-04-04T00:11:06;99655.31;;;0.74;59.28
49315;BME280;36672;50.710;12.498;2023-04-04T00:13:32;99656.28;;;0.73;59.65
49315;BME280;36672;50.710;12.498;2023-04-04T00:15:57;99644.69;;;0.74;59.71
49315;BME280;36672;50.710;12.498;2023-04-04T00:18:22;99655.31;;;0.74;60.42
49315;BME280;36672;50.710;12.498;2023-04-04T00:20:47;99648.94;;;0.77;60.83
49315;BME280;36672;50.710;12.498;2023-04-04T00:23:13;99640.94;;;0.77;61.19
49315;BME280;36672;50.710;12.498;2023-04-04T00:25:38;99642.66;;;0.78;61.13
49315;BME280;36672;50.710;12.498;2023-04-04T00:28:03;99636.50;;;0.77;61.42
49315;BME280;36672;50.710;12.498;2023-04-04T00:30:29;99637.44;;;0.76;60.10
49315;BME280;36672;50.710;12.498;2023-04-04T00:32:54;99638.19;;;0.78;59.96
49315;BME280;36672;50.710;12.498;2023-04-04T00:35:20;99643.50;;;0.78;59.48
49315;BME280;36672;50.710;12.498;2023-04-04T00:37:45;99644.38;;;0.79;59.74
49315;BME280;36672;50.710;12.498;2023-04-04T00:40:11;99633.59;;;0.80;59.51
49315;BME280;36672;50.710;12.498;2023-04-04T00:42:36;99635.19;;;0.83;59.46
49315;BME280;36672;50.710;12.498;2023-04-04T00:45:02;99632.53;;;0.83;59.66
49315;BME280;36672;50.710;12.498;2023-04-04T00:47:28;99632.41;;;0.85;59.43
49315;BME280;36672;50.710;12.498;2023-04-04T00:49:54;99625.50;;;0.82;59.61
49315;BME280;36672;50.710;12.498;2023-04-04T00:52:19;99628.16;;;0.82;59.81
49315;BME280;36672;50.710;12.498;2023-04-04T00:54:45;99623.59;;;0.84;59.78
49315;BME280;36672;50.710;12.498;2023-04-04T00:57:10;99632.41;;;0.85;60.13
49315;BME280;36672;50.710;12.498;2023-04-04T00:59:36;99626.13;;;0.86;59.92
49315;BME280;36672;50.710;12.498;2023-04-04T01:02:01;99619.97;;;0.85;60.17
49315;BME280;36672;50.710;12.498;2023-04-04T01:04:27;99619.97;;;0.85;60.20
49315;BME280;36672;50.710;12.498;2023-04-04T01:06:53;99625.19;;;0.87;60.42
49315;BME280;36672;50.710;12.498;2023-04-04T01:09:18;99616.38;;;0.86;60.92
49315;BME280;36672;50.710;12.498;2023-04-04T01:11:44;99617.97;;;0.89;60.84
49315;BME280;36672;50.710;12.498;2023-04-04T01:14:09;99617.22;;;0.87;60.77
49315;BME280;36672;50.710;12.498;2023-04-04T01:16:34;99611.03;;;0.86;61.25
49315;BME280;36672;50.710;12.498;2023-04-04T01:19:00;99616.44;;;0.85;61.70
49315;BME280;36672;50.710;12.498;2023-04-04T01:21:25;99615.63;;;0.84;61.90
49315;BME280;36672;50.710;12.498;2023-04-04T01:26:16;99617.31;;;0.85;62.20
49315;BME280;36672;50.710;12.498;2023-04-04T01:28:41;99613.78;;;0.85;62.66
49315;BME280;36672;50.710;12.498;2023-04-04T01:31:07;99606.75;;;0.84;62.60
49315;BME280;36672;50.710;12.498;2023-04-04T01:33:35;99604.97;;;0.84;63.09
49315;BME280;36672;50.710;12.498;2023-04-04T01:38:46;99598.91;;;0.82;63.14
49315;BME280;36672;50.710;12.498;2023-04-04T01:41:15;99595.41;;;0.81;63.34
49315;BME280;36672;50.710;12.498;2023-04-04T01:43:44;99590.09;;;0.81;63.45
49315;BME280;36672;50.710;12.498;2023-04-04T01:46:15;99585.84;;;0.79;63.77
49315;BME280;36672;50.710;12.498;2023-04-04T01:48:41;99584.97;;;0.78;63.90
49315;BME280;36672;50.710;12.498;2023-04-04T01:51:06;99584.13;;;0.78;63.80
49315;BME280;36672;50.710;12.498;2023-04-04T01:53:32;99587.75;;;0.77;63.98
49315;BME280;36672;50.710;12.498;2023-04-04T01:55:57;99587.75;;;0.77;64.27
49315;BME280;36672;50.710;12.498;2023-04-04T01:58:23;99586.91;;;0.76;64.61
49315;BME280;36672;50.710;12.498;2023-04-04T02:00:48;99592.13;;;0.78;65.10
49315;BME280;36672;50.710;12.498;2023-04-04T02:03:14;99584.00;;;0.79;64.62
49315;BME280;36672;50.710;12.498;2023-04-04T02:05:39;99582.22;;;0.80;64.65
49315;BME280;36672;50.710;12.498;2023-04-04T02:08:05;99589.44;;;0.78;64.82
49315;BME280;36672;50.710;12.498;2023-04-04T02:10:30;99587.88;;;0.75;64.95
49315;BME280;36672;50.710;12.498;2023-04-04T02:12:55;99594.13;;;0.74;65.13
49315;BME280;36672;50.710;12.498;2023-04-04T02:15:22;99587.88;;;0.75;65.63
49315;BME280;36672;50.710;12.498;2023-04-04T02:17:48;99594.13;;;0.74;65.64
49315;BME280;36672;50.710;12.498;2023-04-04T02:20:13;99585.44;;;0.72;65.86
49315;BME280;36672;50.710;12.498;2023-04-04T02:22:38;99586.41;;;0.71;66.06
49315;BME280;36672;50.710;12.498;2023-04-04T02:25:04;99581.16;;;0.70;66.38
49315;BME280;36672;50.710;12.498;2023-04-04T02:27:29;99576.72;;;0.70;66.32
49315;BME280;36672;50.710;12.498;2023-04-04T02:29:54;99578.41;;;0.71;66.51
49315;BME280;36672;50.710;12.498;2023-04-04T02:32:20;99579.38;;;0.70;66.59
49315;BME280;36672;50.710;12.498;2023-04-04T02:34:45;99578.41;;;0.71;66.77
49315;BME280;36672;50.710;12.498;2023-04-04T02:37:10;99580.31;;;0.69;67.30
49315;BME280;36672;50.710;12.498;2023-04-04T02:39:36;99574.16;;;0.69;66.85
49315;BME280;36672;50.710;12.498;2023-04-04T02:42:01;99575.13;;;0.68;67.33
49315;BME280;36672;50.710;12.498;2023-04-04T02:44:26;99573.28;;;0.68;67.13
49315;BME280;36672;50.710;12.498;2023-04-04T02:46:51;99568.09;;;0.67;67.16
49315;BME280;36672;50.710;12.498;2023-04-04T02:49:16;99565.66;;;0.63;67.63
49315;BME280;36672;50.710;12.498;2023-04-04T02:51:42;99570.00;;;0.64;67.31
49315;BME280;36672;50.710;12.498;2023-04-04T02:54:07;99568.41;;;0.62;67.98
49315;BME280;36672;50.710;12.498;2023-04-04T02:56:35;99568.41;;;0.62;67.61
49315;BME280;36672;50.710;12.498;2023-04-04T02:59:01;99567.56;;;0.61;67.50
49315;BME280;36672;50.710;12.498;2023-04-04T03:01:27;99571.19;;;0.60;67.65
49315;BME280;36672;50.710;12.498;2023-04-04T03:03:52;99567.81;;;0.58;68.13
49315;BME280;36672;50.710;12.498;2023-04-04T03:06:17;99559.91;;;0.57;68.22
49315;BME280;36672;50.710;12.498;2023-04-04T03:08:43;99559.28;;;0.53;68.39
49315;BME280;36672;50.710;12.498;2023-04-04T03:11:08;99530.63;;;0.32;68.38
49315;BME280;36672;50.710;12.498;2023-04-04T03:13:33;99561.09;;;0.53;68.24
49315;BME280;36672;50.710;12.498;2023-04-04T03:15:59;99554.19;;;0.50;68.27
49315;BME280;36672;50.710;12.498;2023-04-04T03:18:26;99551.66;;;0.48;68.42
49315;BME280;36672;50.710;12.498;2023-04-04T03:20:52;99549.13;;;0.47;68.43
49315;BME280;36672;50.710;12.498;2023-04-04T03:23:17;99548.13;;;0.48;68.62
49315;BME280;36672;50.710;12.498;2023-04-04T03:25:42;99545.59;;;0.46;69.04
49315;BME280;36672;50.710;12.498;2023-04-04T03:28:08;99549.31;;;0.44;68.59
49315;BME280;36672;50.710;12.498;2023-04-04T03:30:33;99546.78;;;0.42;68.92
49315;BME280;36672;50.710;12.498;2023-04-04T03:33:02;99541.47;;;0.42;68.96
49315;BME280;36672;50.710;12.498;2023-04-04T03:35:27;99536.97;;;0.43;69.08
49315;BME280;36672;50.710;12.498;2023-04-04T03:37:52;99538.81;;;0.42;69.18
49315;BME280;36672;50.710;12.498;2023-04-04T03:40:18;99537.09;;;0.41;69.44
49315;BME280;36672;50.710;12.498;2023-04-04T03:42:43;99541.66;;;0.39;69.19
49315;BME280;36672;50.710;12.498;2023-04-04T03:45:09;99543.38;;;0.40;69.04
49315;BME280;36672;50.710;12.498;2023-04-04T03:47:35;99534.66;;;0.38;69.39
49315;BME280;36672;50.710;12.498;2023-04-04T03:50:00;99537.31;;;0.38;69.39
49315;BME280;36672;50.710;12.498;2023-04-04T03:52:26;99531.38;;;0.35;69.80
49315;BME280;36672;50.710;12.498;2023-04-04T03:54:51;99534.16;;;0.33;69.67
49315;BME280;36672;50.710;12.498;2023-04-04T03:57:16;99533.41;;;0.31;69.67
49315;BME280;36672;50.710;12.498;2023-04-04T03:59:42;99539.56;;;0.31;69.56
49315;BME280;36672;50.710;12.498;2023-04-04T04:02:07;99534.34;;;0.30;69.62
49315;BME280;36672;50.710;12.498;2023-04-04T04:04:32;99526.59;;;0.27;69.61
49315;BME280;36672;50.710;12.498;2023-04-04T04:06:57;99534.66;;;0.25;70.13
49315;BME280;36672;50.710;12.498;2023-04-04T04:09:23;99532.88;;;0.26;69.82
49315;BME280;36672;50.710;12.498;2023-04-04T04:11:48;99532.13;;;0.24;69.71
49315;BME280;36672;50.710;12.498;2023-04-04T04:14:13;99531.41;;;0.22;70.02
49315;BME280;36672;50.710;12.498;2023-04-04T04:16:38;99532.47;;;0.19;70.30
49315;BME280;36672;50.710;12.498;2023-04-04T04:19:05;99523.63;;;0.19;70.00
49315;BME280;36672;50.710;12.498;2023-04-04T04:21:30;99526.41;;;0.17;70.35
49315;BME280;36672;50.710;12.498;2023-04-04T04:23:55;99530.00;;;0.16;70.51
49315;BME280;36672;50.710;12.498;2023-04-04T04:26:21;99532.66;;;0.16;70.05
49315;BME280;36672;50.710;12.498;2023-04-04T04:28:46;99528.22;;;0.17;70.54
49315;BME280;36672;50.710;12.498;2023-04-04T04:31:14;99528.22;;;0.17;70.51
49315;BME280;36672;50.710;12.498;2023-04-04T04:33:39;99527.34;;;0.16;70.35
49315;BME280;36672;50.710;12.498;2023-04-04T04:36:05;99530.88;;;0.17;70.25
49315;BME280;36672;50.710;12.498;2023-04-04T04:38:31;99528.22;;;0.17;70.27
49315;BME280;36672;50.710;12.498;2023-04-04T04:40:56;99528.94;;;0.19;70.53
49315;BME280;36672;50.710;12.498;2023-04-04T04:43:21;99521.84;;;0.19;70.26
49315;BME280;36672;50.710;12.498;2023-04-04T04:45:47;99530.41;;;0.23;70.49
49315;BME280;36672;50.710;12.498;2023-04-04T04:48:12;99530.41;;;0.23;70.69
49315;BME280;36672;50.710;12.498;2023-04-04T04:50:37;99531.50;;;0.20;71.09
49315;BME280;36672;50.710;12.498;2023-04-04T04:53:03;99528.50;;;0.25;70.97
49315;BME280;36672;50.710;12.498;2023-04-04T04:55:28;99528.28;;;0.28;70.83
49315;BME280;36672;50.710;12.498;2023-04-04T04:57:53;99535.22;;;0.30;70.46
49315;BME280;36672;50.710;12.498;2023-04-04T05:00:19;99531.56;;;0.31;70.61
49315;BME280;36672;50.710;12.498;2023-04-04T05:02:44;99532.22;;;0.35;70.66
49315;BME280;36672;50.710;12.498;2023-04-04T05:05:09;99535.63;;;0.37;70.94
49315;BME280;36672;50.710;12.498;2023-04-04T05:07:34;99538.03;;;0.40;71.18
49315;BME280;36672;50.710;12.498;2023-04-04T05:10:00;99536.13;;;0.42;70.77
49315;BME280;36672;50.710;12.498;2023-04-04T05:12:26;99542.94;;;0.46;71.05
49315;BME280;36672;50.710;12.498;2023-04-04T05:14:51;99537.63;;;0.46;70.83
49315;BME280;36672;50.710;12.498;2023-04-04T05:17:16;99546.34;;;0.48;70.75
49315;BME280;36672;50.710;12.498;2023-04-04T05:19:42;99547.19;;;0.49;70.77
49315;BME280;36672;50.710;12.498;2023-04-04T05:22:07;99542.50;;;0.53;70.67
49315;BME280;36672;50.710;12.498;2023-04-04T05:24:32;99543.97;;;0.57;70.96
49315;BME280;36672;50.710;12.498;2023-04-04T05:26:57;99558.97;;;0.58;70.89
49315;BME280;36672;50.710;12.498;2023-04-04T05:29:23;99557.19;;;0.58;70.78
49315;BME280;36672;50.710;12.498;2023-04-04T05:31:48;99555.13;;;0.62;70.71
49315;BME280;36672;50.710;12.498;2023-04-04T05:34:13;99559.28;;;0.66;70.98
49315;BME280;36672;50.710;12.498;2023-04-04T05:36:38;99564.25;;;0.71;71.11
49315;BME280;36672;50.710;12.498;2023-04-04T05:39:04;99568.41;;;0.75;70.80
49315;BME280;36672;50.710;12.498;2023-04-04T05:41:29;99568.06;;;0.79;70.69
49315;BME280;36672;50.710;12.498;2023-04-04T05:43:55;99569.53;;;0.84;70.76
49315;BME280;36672;50.710;12.498;2023-04-04T05:46:20;99568.56;;;0.85;70.69
49315;BME280;36672;50.710;12.498;2023-04-04T05:48:45;99568.00;;;0.92;70.46
49315;BME280;36672;50.710;12.498;2023-04-04T05:51:10;99573.84;;;0.97;70.23
49315;BME280;36672;50.710;12.498;2023-04-04T05:53:36;99575.34;;;1.02;69.98
49315;BME280;36672;50.710;12.498;2023-04-04T05:56:01;99568.19;;;1.02;69.55
49315;BME280;36672;50.710;12.498;2023-04-04T05:58:27;99571.81;;;1.01;69.61
49315;BME280;36672;50.710;12.498;2023-04-04T06:00:52;99569.78;;;1.05;69.62
49315;BME280;36672;50.710;12.498;2023-04-04T06:03:17;99577.53;;;1.08;69.62
49315;BME280;36672;50.710;12.498;2023-04-04T06:05:43;99567.50;;;1.11;69.37
49315;BME280;36672;50.710;12.498;2023-04-04T06:08:11;99573.06;;;1.08;69.48
49315;BME280;36672;50.710;12.498;2023-04-04T06:10:36;99569.09;;;1.14;69.31
49315;BME280;36672;50.710;12.498;2023-04-04T06:13:01;99579.28;;;1.20;69.35
49315;BME280;36672;50.710;12.498;2023-04-04T06:15:27;99567.47;;;1.24;69.24
49315;BME280;36672;50.710;12.498;2023-04-04T06:17:52;99574.38;;;1.27;68.61
49315;BME280;36672;50.710;12.498;2023-04-04T06:20:17;99573.28;;;1.29;68.99
49315;BME280;36672;50.710;12.498;2023-04-04T06:22:45;99579.75;;;1.38;68.61
49315;BME280;36672;50.710;12.498;2023-04-04T06:25:10;99570.31;;;1.45;68.07
49315;BME280;36672;50.710;12.498;2023-04-04T06:27:38;99578.78;;;1.51;67.86
49315;BME280;36672;50.710;12.498;2023-04-04T06:30:03;99577.25;;;1.59;67.76
49315;BME280;36672;50.710;12.498;2023-04-04T06:32:29;99580.03;;;1.58;67.54
49315;BME280;36672;50.710;12.498;2023-04-04T06:34:55;99577.25;;;1.59;67.40
49315;BME280;36672;50.710;12.498;2023-04-04T06:37:21;99569.31;;;1.71;67.56
49315;BME280;36672;50.710;12.498;2023-04-04T06:39:46;99568.50;;;1.82;66.75
49315;BME280;36672;50.710;12.498;2023-04-04T06:42:11;99564.16;;;1.92;66.71
49315;BME280;36672;50.710;12.498;2023-04-04T06:44:36;99572.00;;;1.93;66.04
49315;BME280;36672;50.710;12.498;2023-04-04T06:47:02;99576.66;;;2.03;66.66
49315;BME280;36672;50.710;12.498;2023-04-04T06:49:27;99565.75;;;2.06;65.47
49315;BME280;36672;50.710;12.498;2023-04-04T06:51:52;99568.41;;;2.17;65.83
49315;BME280;36672;50.710;12.498;2023-04-04T06:54:18;99573.75;;;2.28;65.48
49315;BME280;36672;50.710;12.498;2023-04-04T06:56:43;99566.59;;;2.40;65.19
49315;BME280;36672;50.710;12.498;2023-04-04T06:59:08;99565.75;;;2.51;65.09
49315;BME280;36672;50.710;12.498;2023-04-04T07:01:36;99571.09;;;2.63;64.73
49315;BME280;36672;50.710;12.498;2023-04-04T07:04:01;99562.34;;;2.72;64.52
49315;BME280;36672;50.710;12.498;2023-04-04T07:06:26;99566.31;;;2.89;63.78
49315;BME280;36672;50.710;12.498;2023-04-04T07:08:53;99574.31;;;3.00;63.51
49315;BME280;36672;50.710;12.498;2023-04-04T07:11:19;99577.78;;;3.12;62.65
49315;BME280;36672;50.710;12.498;2023-04-04T07:13:44;99572.00;;;3.28;62.52
49315;BME280;36672;50.710;12.498;2023-04-04T07:16:09;99578.38;;;3.48;61.49
49315;BME280;36672;50.710;12.498;2023-04-04T07:18:35;99575.53;;;3.61;60.73
49315;BME280;36672;50.710;12.498;2023-04-04T07:21:00;99560.34;;;3.62;60.03
49315;BME280;36672;50.710;12.498;2023-04-04T07:23:26;99558.06;;;3.78;60.63
49315;BME280;36672;50.710;12.498;2023-04-04T07:25:51;99561.88;;;4.06;60.03
49315;BME280;36672;50.710;12.498;2023-04-04T07:28:17;99570.91;;;4.36;59.19
49315;BME280;36672;50.710;12.498;2023-04-04T07:30:42;99559.03;;;4.60;58.36
49315;BME280;36672;50.710;12.498;2023-04-04T07:33:07;99561.03;;;4.68;57.65
49315;BME280;36672;50.710;12.498;2023-04-04T07:35:33;99560.09;;;4.88;56.73
49315;BME280;36672;50.710;12.498;2023-04-04T07:37:58;99560.56;;;5.62;56.72
49315;BME280;36672;50.710;12.498;2023-04-04T07:40:23;99565.97;;;6.29;54.00
49315;BME280;36672;50.710;12.498;2023-04-04T07:42:49;99554.78;;;6.44;51.85
49315;BME280;36672;50.710;12.498;2023-04-04T07:45:16;99552.84;;;6.64;52.81
49315;BME280;36672;50.710;12.498;2023-04-04T07:47:42;99556.25;;;6.84;49.92
49315;BME280;36672;50.710;12.498;2023-04-04T07:50:07;99559.66;;;6.86;50.69
49315;BME280;36672;50.710;12.498;2023-04-04T07:52:33;99557.41;;;6.81;50.98
49315;BME280;36672;50.710;12.498;2023-04-04T07:54:58;99555.53;;;6.92;50.89
49315;BME280;36672;50.710;12.498;2023-04-04T07:57:25;99554.72;;;7.27;50.16
49315;BME280;36672;50.710;12.498;2023-04-04T07:59:50;99548.41;;;7.99;49.87
49315;BME280;36672;50.710;12.498;2023-04-04T08:02:15;99552.94;;;8.51;47.42
49315;BME280;36672;50.710;12.498;2023-04-04T08:04:40;99554.41;;;8.45;45.52
49315;BME280;36672;50.710;12.498;2023-04-04T08:07:06;99555.72;;;8.68;46.65
49315;BME280;36672;50.710;12.498;2023-04-04T08:09:31;99553.53;;;8.63;45.51
49315;BME280;36672;50.710;12.498;2023-04-04T08:11:58;99546.44;;;8.36;45.51
49315;BME280;36672;50.710;12.498;2023-04-04T08:14:23;99550.56;;;7.95;45.63
49315;BME280;36672;50.710;12.498;2023-04-04T08:16:49;99543.44;;;7.86;46.00
49315;BME280;36672;50.710;12.498;2023-04-04T08:19:14;99548.72;;;7.70;45.70
49315;BME280;36672;50.710;12.498;2023-04-04T08:21:40;99551.94;;;7.37;45.90
49315;BME280;36672;50.710;12.498;2023-04-04T08:24:05;99547.25;;;7.03;46.30
49315;BME280;36672;50.710;12.498;2023-04-04T08:26:31;99551.34;;;6.79;45.48
49315;BME280;36672;50.710;12.498;2023-04-04T08:28:57;99547.03;;;6.68;46.12
49315;BME280;36672;50.710;12.498;2023-04-04T08:31:22;99552.00;;;6.63;47.39
49315;BME280;36672;50.710;12.498;2023-04-04T08:33:47;99549.97;;;6.47;47.89
49315;BME280;36672;50.710;12.498;2023-04-04T08:36:12;99551.81;;;6.37;48.68
49315;BME280;36672;50.710;12.498;2023-04-04T08:38:37;99555.13;;;6.21;47.63
49315;BME280;36672;50.710;12.498;2023-04-04T08:41:03;99551.50;;;5.93;48.14
49315;BME280;36672;50.710;12.498;2023-04-04T08:43:28;99559.31;;;5.66;48.54
49315;BME280;36672;50.710;12.498;2023-04-04T08:45:58;99546.63;;;5.49;49.18
49315;BME280;36672;50.710;12.498;2023-04-04T08:48:24;99555.66;;;5.28;48.68
49315;BME280;36672;50.710;12.498;2023-04-04T08:50:51;99555.78;;;5.07;49.66
49315;BME280;36672;50.710;12.498;2023-04-04T08:53:21;99557.16;;;5.01;49.67
49315;BME280;36672;50.710;12.498;2023-04-04T08:55:46;99557.00;;;4.93;49.99
49315;BME280;36672;50.710;12.498;2023-04-04T08:58:12;99551.06;;;4.80;49.91
49315;BME280;36672;50.710;12.498;2023-04-04T09:00:38;99552.47;;;4.74;49.36
49315;BME280;36672;50.710;12.498;2023-04-04T09:03:05;99552.22;;;4.87;49.32
49315;BME280;36672;50.710;12.498;2023-04-04T09:05:33;99555.34;;;5.02;49.40
49315;BME280;36672;50.710;12.498;2023-04-04T09:07:59;99550.84;;;5.12;49.26
49315;BME280;36672;50.710;12.498;2023-04-04T09:10:24;99548.88;;;5.34;48.31
49315;BME280;36672;50.710;12.498;2023-04-04T09:12:50;99551.13;;;5.58;48.00
49315;BME280;36672;50.710;12.498;2023-04-04T09:15:15;99545.75;;;5.78;47.83
49315;BME280;36672;50.710;12.498;2023-04-04T09:17:41;99546.84;;;5.85;47.43
49315;BME280;36672;50.710;12.498;2023-04-04T09:22:50;99538.06;;;6.22;46.61
49315;BME280;36672;50.710;12.498;2023-04-04T09:25:15;99543.91;;;6.35;45.87
49315;BME280;36672;50.710;12.498;2023-04-04T09:27:43;99535.88;;;6.63;46.65
49315;BME280;36672;50.710;12.498;2023-04-04T09:30:09;99526.53;;;7.31;46.66
49315;BME280;36672;50.710;12.498;2023-04-04T09:32:34;99525.94;;;8.77;41.46
49315;BME280;36672;50.710;12.498;2023-04-04T09:35:00;99520.47;;;10.11;37.27
49315;BME280;36672;50.710;12.498;2023-04-04T09:37:25;99516.28;;;10.65;35.94
49315;BME280;36672;50.710;12.498;2023-04-04T09:39:51;99531.06;;;10.21;36.24
49315;BME280;36672;50.710;12.498;2023-04-04T09:42:17;99532.81;;;9.89;36.49
49315;BME280;36672;50.710;12.498;2023-04-04T09:44:42;99533.00;;;9.38;37.34
49315;BME280;36672;50.710;12.498;2023-04-04T09:47:24;99535.72;;;8.78;39.41
49315;BME280;36672;50.710;12.498;2023-04-04T09:49:50;99539.69;;;8.31;39.68
49315;BME280;36672;50.710;12.498;2023-04-04T09:52:18;99536.91;;;8.15;41.50
49315;BME280;36672;50.710;12.498;2023-04-04T09:54:59;99536.56;;;8.10;41.38
49315;BME280;36672;50.710;12.498;2023-04-04T09:57:27;99539.78;;;8.13;40.50
49315;BME280;36672;50.710;12.498;2023-04-04T09:59:55;99545.47;;;8.10;40.21
49315;BME280;36672;50.710;12.498;2023-04-04T10:02:21;99537.81;;;7.97;39.74
49315;BME280;36672;50.710;12.498;2023-04-04T10:04:46;99543.25;;;7.79;40.00
49315;BME280;36672;50.710;12.498;2023-04-04T10:07:12;99541.13;;;7.91;40.10
49315;BME280;36672;50.710;12.498;2023-04-04T10:09:38;99538.25;;;8.11;39.91
49315;BME280;36672;50.710;12.498;2023-04-04T10:12:07;99533.63;;;8.29;40.15
49315;BME280;36672;50.710;12.498;2023-04-04T10:14:33;99536.16;;;8.57;39.51
49315;BME280;36672;50.710;12.498;2023-04-04T10:16:59;99538.44;;;8.44;39.38
49315;BME280;36672;50.710;12.498;2023-04-04T10:19:25;99541.66;;;8.21;38.88
49315;BME280;36672;50.710;12.498;2023-04-04T10:21:50;99539.69;;;7.79;39.44
49315;BME280;36672;50.710;12.498;2023-04-04T10:24:16;99541.13;;;7.29;40.06
49315;BME280;36672;50.710;12.498;2023-04-04T10:26:43;99547.88;;;7.15;40.39
49315;BME280;36672;50.710;12.498;2023-04-04T10:29:08;99545.56;;;7.02;40.44
49315;BME280;36672;50.710;12.498;2023-04-04T10:31:34;99534.56;;;6.95;39.90
49315;BME280;36672;50.710;12.498;2023-04-04T10:36:37;99543.97;;;7.27;40.12
49315;BME280;36672;50.710;12.498;2023-04-04T10:41:36;99526.16;;;7.26;39.16
49315;BME280;36672;50.710;12.498;2023-04-04T10:44:07;99534.91;;;7.28;38.92
49315;BME280;36672;50.710;12.498;2023-04-04T10:46:34;99531.59;;;7.16;38.71
49315;BME280;36672;50.710;12.498;2023-04-04T10:49:01;99532.34;;;7.09;38.67
49315;BME280;36672;50.710;12.498;2023-04-04T10:51:28;99529.06;;;7.15;39.07
49315;BME280;36672;50.710;12.498;2023-04-04T10:53:54;99527.69;;;7.29;39.14
49315;BME280;36672;50.710;12.498;2023-04-04T10:56:20;99522.84;;;7.32;39.15
49315;BME280;36672;50.710;12.498;2023-04-04T10:58:46;99521.38;;;7.20;39.29
49315;BME280;36672;50.710;12.498;2023-04-04T11:01:12;99529.53;;;7.28;39.76
49315;BME280;36672;50.710;12.498;2023-04-04T11:09:13;99527.91;;;6.99;39.36
49315;BME280;36672;50.710;12.498;2023-04-04T11:20:27;99514.31;;;7.19;39.77
49315;BME280;36672;50.710;12.498;2023-04-04T11:23:06;99510.72;;;8.52;38.35
49315;BME280;36672;50.710;12.498;2023-04-04T11:25:33;99514.25;;;9.11;37.10
49315;BME280;36672;50.710;12.498;2023-04-04T11:28:03;99510.16;;;8.91;36.87
49315;BME280;36672;50.710;12.498;2023-04-04T11:30:28;99514.13;;;8.70;38.08
49315;BME280;36672;50.710;12.498;2023-04-04T11:32:57;99497.69;;;8.39;37.32
49315;BME280;36672;50.710;12.498;2023-04-04T11:35:25;99503.56;;;8.08;38.68
49315;BME280;36672;50.710;12.498;2023-04-04T11:40:19;99499.41;;;8.13;38.44
49315;BME280;36672;50.710;12.498;2023-04-04T11:42:44;99499.69;;;8.79;36.72
49315;BME280;36672;50.710;12.498;2023-04-04T11:45:18;99507.31;;;8.92;36.87
49315;BME280;36672;50.710;12.498;2023-04-04T11:47:46;99496.88;;;8.89;36.84
49315;BME280;36672;50.710;12.498;2023-04-04T11:50:13;99500.84;;;8.69;35.61
49315;BME280;36672;50.710;12.498;2023-04-04T11:52:40;99501.66;;;8.61;37.10
49315;BME280;36672;50.710;12.498;2023-04-04T11:55:19;99490.00;;;8.52;36.73
49315;BME280;36672;50.710;12.498;2023-04-04T11:57:46;99484.88;;;8.41;36.58
49315;BME280;36672;50.710;12.498;2023-04-04T12:00:31;99484.50;;;8.36;36.58
49315;BME280;36672;50.710;12.498;2023-04-04T12:02:59;99491.16;;;8.15;35.96
49315;BME280;36672;50.710;12.498;2023-04-04T12:05:25;99481.47;;;8.30;36.39
49315;BME280;36672;50.710;12.498;2023-04-04T12:07:51;99478.00;;;8.89;36.34
49315;BME280;36672;50.710;12.498;2023-04-04T12:10:17;99473.94;;;9.84;34.02
49315;BME280;36672;50.710;12.498;2023-04-04T12:12:44;99473.28;;;9.82;34.54
49315;BME280;36672;50.710;12.498;2023-04-04T12:15:09;99474.31;;;9.40;34.59
49315;BME280;36672;50.710;12.498;2023-04-04T12:17:40;99466.56;;;9.04;34.85
49315;BME280;36672;50.710;12.498;2023-04-04T12:20:08;99467.22;;;8.89;35.45
49315;BME280;36672;50.710;12.498;2023-04-04T12:22:34;99470.53;;;8.67;35.42
49315;BME280;36672;50.710;12.498;2023-04-04T12:24:59;99469.78;;;8.48;36.05
49315;BME280;36672;50.710;12.498;2023-04-04T12:27:25;99467.09;;;8.48;36.53
49315;BME280;36672;50.710;12.498;2023-04-04T12:29:52;99464.78;;;8.61;36.38
49315;BME280;36672;50.710;12.498;2023-04-04T12:32:17;99463.97;;;8.77;35.94
49315;BME280;36672;50.710;12.498;2023-04-04T12:34:43;99459.50;;;9.19;35.54
49315;BME280;36672;50.710;12.498;2023-04-04T12:37:11;99460.25;;;9.94;35.56
49315;BME280;36672;50.710;12.498;2023-04-04T12:39:39;99456.38;;;10.05;34.10
49315;BME280;36672;50.710;12.498;2023-04-04T12:42:04;99450.19;;;9.71;35.12
49315;BME280;36672;50.710;12.498;2023-04-04T12:44:30;99454.63;;;9.31;34.25
49315;BME280;36672;50.710;12.498;2023-04-04T12:46:57;99442.78;;;8.74;34.38
49315;BME280;36672;50.710;12.498;2023-04-04T12:49:44;99447.16;;;8.32;34.61
49315;BME280;36672;50.710;12.498;2023-04-04T12:55:07;99443.00;;;7.77;34.43
49315;BME280;36672;50.710;12.498;2023-04-04T12:57:33;99439.56;;;7.41;35.67
49315;BME280;36672;50.710;12.498;2023-04-04T12:59:59;99443.75;;;7.35;36.16
49315;BME280;36672;50.710;12.498;2023-04-04T13:02:25;99440.63;;;8.00;35.89
49315;BME280;36672;50.710;12.498;2023-04-04T13:04:52;99437.09;;;8.43;35.05
49315;BME280;36672;50.710;12.498;2023-04-04T13:09:51;99421.56;;;9.21;34.89
49315;BME280;36672;50.710;12.498;2023-04-04T13:12:16;99426.25;;;9.60;34.43
49315;BME280;36672;50.710;12.498;2023-04-04T13:15:00;99419.56;;;10.04;33.74
49315;BME280;36672;50.710;12.498;2023-04-04T13:17:42;99423.66;;;10.48;32.96
49315;BME280;36672;50.710;12.498;2023-04-04T13:20:08;99422.56;;;10.17;32.40
49315;BME280;36672;50.710;12.498;2023-04-04T13:22:34;99418.50;;;9.65;33.05
49315;BME280;36672;50.710;12.498;2023-04-04T13:25:00;99416.53;;;9.34;32.83
49315;BME280;36672;50.710;12.498;2023-04-04T13:27:26;99410.78;;;9.21;33.20
49315;BME280;36672;50.710;12.498;2023-04-04T13:29:52;99408.06;;;9.37;33.34